Terminal Aerodrome Forecast
Issued by NWS

Home | Current Version | Previous Version | Text Only | Print | Product List | Glossary On
Versions: 1 2 3 4 5 6 7 8 9 10 11 12 13 14 15
000
FTUS43 KBIS 280529
TAFJMS
TAF
KJMS 280529Z 2806/2906 18015KT P6SM -TSRA SCT008 OVC035CB
     FM280700 18007KT P6SM VCTS SCT010CB BKN090
     FM280900 31006KT P6SM SCT003 BKN090
     FM281200 31010KT P6SM SCT008 BKN060
     FM281600 31016G24KT P6SM FEW020 SCT150
     FM290100 33010KT P6SM FEW060 FEW250=

USA.gov is the U.S. government's official web portal to all federal, state and local government web resources and services.